createdAt,value
2024-01-16T00:02:47.369Z,-2.13
2024-01-16T00:07:50.586Z,-2.15
2024-01-16T00:12:53.444Z,-2.16
2024-01-16T00:17:57.122Z,-2.16
2024-01-16T00:23:01.259Z,-2.16
2024-01-16T00:28:04.425Z,-2.16
2024-01-16T00:33:07.700Z,-2.15
2024-01-16T00:38:12.729Z,-2.15
2024-01-16T00:43:16.526Z,-2.14
2024-01-16T00:48:21.738Z,-2.14
2024-01-16T00:53:24.850Z,-2.13
2024-01-16T00:58:28.103Z,-2.10
2024-01-16T01:03:31.832Z,-2.08
2024-01-16T01:08:36.829Z,-2.06
2024-01-16T01:13:40.382Z,-2.09
2024-01-16T01:18:43.281Z,-2.12
2024-01-16T01:23:46.442Z,-2.14
2024-01-16T01:28:49.757Z,-2.19
2024-01-16T01:33:52.972Z,-2.22
2024-01-16T01:38:56.386Z,-2.26
2024-01-16T01:43:58.972Z,-2.29
2024-01-16T01:49:02.314Z,-2.34
2024-01-16T01:54:06.170Z,-2.40
2024-01-16T01:59:09.859Z,-2.44
2024-01-16T02:04:16.611Z,-2.46
2024-01-16T02:09:19.653Z,-2.50
2024-01-16T02:14:22.841Z,-2.55
2024-01-16T02:19:26.515Z,-2.61
2024-01-16T02:24:30.343Z,-2.63
2024-01-16T02:29:33.573Z,-2.67
2024-01-16T02:34:36.849Z,-2.71
2024-01-16T02:39:41.314Z,-2.78
2024-01-16T02:44:44.578Z,-2.84
2024-01-16T02:49:47.363Z,-2.95
2024-01-16T02:54:49.887Z,-3.05
2024-01-16T02:59:52.994Z,-3.12
2024-01-16T03:04:55.869Z,-3.20
2024-01-16T03:09:59.376Z,-3.26
2024-01-16T03:15:02.568Z,-3.35
2024-01-16T03:20:06.575Z,-3.43
2024-01-16T03:25:10.702Z,-3.48
2024-01-16T03:30:13.927Z,-3.56
2024-01-16T03:35:16.755Z,-3.62
2024-01-16T03:40:19.583Z,-3.66
2024-01-16T03:45:22.731Z,-3.71
2024-01-16T03:50:26.060Z,-3.75
2024-01-16T03:55:28.150Z,-3.77
2024-01-16T04:00:31.350Z,-3.82
2024-01-16T04:05:35.137Z,-3.89
2024-01-16T04:10:38.608Z,-3.94
2024-01-16T04:15:41.509Z,-3.99
2024-01-16T04:20:44.903Z,-4.04
2024-01-16T04:25:47.870Z,-4.09
2024-01-16T04:30:50.821Z,-4.13
2024-01-16T04:35:53.196Z,-4.20
2024-01-16T04:40:56.688Z,-4.24
2024-01-16T04:46:03.544Z,-4.26
2024-01-16T04:51:08.900Z,-4.30
2024-01-16T04:56:11.695Z,-4.33
2024-01-16T05:01:15.192Z,-4.33
2024-01-16T05:06:18.638Z,-4.33
2024-01-16T05:11:21.157Z,-4.35
2024-01-16T05:16:25.795Z,-4.40
2024-01-16T05:21:28.639Z,-4.46
2024-01-16T05:26:31.984Z,-4.52
2024-01-16T05:31:40.324Z,-4.55
2024-01-16T05:36:44.906Z,-4.56
2024-01-16T05:41:47.821Z,-4.56
2024-01-16T05:46:50.386Z,-4.55
2024-01-16T05:51:53.660Z,-4.53
2024-01-16T05:56:56.737Z,-4.54
2024-01-16T06:02:00.720Z,-4.54
2024-01-16T06:07:07.150Z,-4.55
2024-01-16T06:12:10.478Z,-4.59
2024-01-16T06:17:14.066Z,-4.63
2024-01-16T06:22:17.378Z,-4.70
2024-01-16T06:27:20.041Z,-4.73
2024-01-16T06:32:23.528Z,-4.74
2024-01-16T06:37:26.293Z,-4.74
2024-01-16T06:42:29.347Z,-4.73
2024-01-16T06:47:32.044Z,-4.73
2024-01-16T06:52:35.464Z,-4.76
2024-01-16T06:57:38.176Z,-4.76
2024-01-16T07:02:41.710Z,-4.76
2024-01-16T07:07:46.732Z,-4.77
2024-01-16T07:12:50.412Z,-4.79
2024-01-16T07:17:53.036Z,-4.88
2024-01-16T07:22:55.627Z,-4.97
2024-01-16T07:27:58.968Z,-5.09
2024-01-16T07:33:01.468Z,-5.22
2024-01-16T07:38:05.611Z,-5.26
2024-01-16T07:43:08.418Z,-5.22
2024-01-16T07:48:11.914Z,-5.17
2024-01-16T07:53:15.785Z,-5.08
2024-01-16T07:58:20.485Z,-4.98
2024-01-16T08:03:22.726Z,-4.88
2024-01-16T08:08:25.787Z,-4.75
2024-01-16T08:13:29.032Z,-4.65
2024-01-16T08:18:32.687Z,-4.55
2024-01-16T08:23:36.301Z,-4.48
2024-01-16T08:28:39.368Z,-4.37
2024-01-16T08:33:46.773Z,-4.24
2024-01-16T08:38:51.099Z,-4.13
2024-01-16T08:43:55.432Z,-4.00
2024-01-16T08:48:58.783Z,-3.92
2024-01-16T08:54:02.312Z,-3.85
2024-01-16T08:59:06.218Z,-3.73
2024-01-16T09:04:09.904Z,-3.62
2024-01-16T09:09:13.904Z,-3.52
2024-01-16T09:14:16.507Z,-3.39
2024-01-16T09:19:19.226Z,-3.25
2024-01-16T09:24:21.733Z,-3.13
2024-01-16T09:29:25.572Z,-3.03
2024-01-16T09:34:29.604Z,-2.86
2024-01-16T09:39:33.171Z,-2.66
2024-01-16T09:44:36.046Z,-2.42
2024-01-16T09:49:40.189Z,-2.14
2024-01-16T09:54:43.496Z,-1.93
2024-01-16T09:59:46.700Z,-1.91
2024-01-16T10:04:49.560Z,-2.00
2024-01-16T10:09:52.565Z,-2.02
2024-01-16T10:14:56.449Z,-1.91
2024-01-16T10:20:05.570Z,-1.75
2024-01-16T10:25:10.698Z,-1.62
2024-01-16T10:30:14.361Z,-1.52
2024-01-16T10:35:19.402Z,-1.31
2024-01-16T10:40:27.236Z,-0.99
2024-01-16T10:45:34.390Z,-0.78
2024-01-16T10:50:38.740Z,-0.53
2024-01-16T10:55:55.019Z,-0.35
2024-01-16T11:00:58.735Z,-0.22
2024-01-16T11:06:02.738Z,-0.11
2024-01-16T11:11:06.689Z,-0.15
2024-01-16T11:16:11.873Z,-0.26
2024-01-16T11:21:18.264Z,-0.42
2024-01-16T11:26:37.476Z,-0.76
2024-01-16T11:31:45.705Z,-0.82
2024-01-16T11:36:56.325Z,-0.89
2024-01-16T11:42:00.224Z,-0.92
2024-01-16T11:47:04.655Z,-0.77
2024-01-16T11:52:07.867Z,-0.60
2024-01-16T11:57:32.110Z,-0.34
2024-01-16T12:02:55.305Z,-0.34
2024-01-16T12:07:58.383Z,-0.52
2024-01-16T12:13:04.074Z,-0.54
2024-01-16T12:18:15.983Z,-0.55
2024-01-16T12:23:24.222Z,-0.49
2024-01-16T12:33:32.516Z,-0.66
2024-01-16T12:38:36.520Z,-0.77
2024-01-16T12:43:39.815Z,-0.86
2024-01-16T12:48:53.045Z,-0.91
2024-01-16T12:54:16.579Z,-0.92
2024-01-16T12:59:20.358Z,-1.10
2024-01-16T13:04:23.266Z,-1.22
2024-01-16T13:09:27.117Z,-1.21
2024-01-16T13:14:31.913Z,-1.11
2024-01-16T13:19:35.543Z,-1.10
2024-01-16T13:24:38.260Z,-1.11
2024-01-16T13:29:41.615Z,-1.15
2024-01-16T13:34:50.030Z,-1.16
2024-01-16T13:39:53.003Z,-1.22
2024-01-16T13:44:55.488Z,-1.45
2024-01-16T13:49:58.648Z,-1.56
2024-01-16T13:55:04.919Z,-1.62
2024-01-16T14:00:14.013Z,-1.68
2024-01-16T14:05:19.618Z,-1.72
2024-01-16T14:10:25.449Z,-1.92
2024-01-16T14:15:28.174Z,-2.00
2024-01-16T14:20:31.029Z,-2.03
2024-01-16T14:25:33.976Z,-2.09
2024-01-16T14:30:36.996Z,-2.16
2024-01-16T14:35:39.693Z,-2.20
2024-01-16T14:40:42.363Z,-2.25
2024-01-16T14:45:46.476Z,-2.31
2024-01-16T14:50:50.360Z,-2.39
2024-01-16T14:55:54.468Z,-2.52
2024-01-16T15:00:57.318Z,-2.56
2024-01-16T15:06:00.090Z,-2.60
2024-01-16T15:11:03.361Z,-2.65
2024-01-16T15:16:06.492Z,-2.72
2024-01-16T15:21:09.160Z,-2.78
2024-01-16T15:26:11.817Z,-2.85
2024-01-16T15:31:15.235Z,-3.01
2024-01-16T15:36:18.348Z,-3.20
2024-01-16T15:41:21.119Z,-3.39
2024-01-16T15:46:27.214Z,-3.55
2024-01-16T15:51:30.389Z,-3.78
2024-01-16T15:56:36.274Z,-4.05
2024-01-16T16:01:45.281Z,-4.33
2024-01-16T16:06:48.033Z,-4.58
2024-01-16T16:11:50.868Z,-4.87
2024-01-16T16:16:53.517Z,-5.06
2024-01-16T16:21:59.089Z,-5.12
2024-01-16T16:27:24.526Z,-5.11
2024-01-16T16:32:27.384Z,-5.15
2024-01-16T16:37:36.423Z,-5.16
2024-01-16T16:42:39.993Z,-5.10
2024-01-16T16:47:43.661Z,-4.99
2024-01-16T16:52:46.367Z,-4.96
2024-01-16T16:57:49.560Z,-4.95
2024-01-16T17:02:52.278Z,-4.88
2024-01-16T17:07:55.225Z,-4.77
2024-01-16T17:12:58.103Z,-4.66
2024-01-16T17:18:00.523Z,-4.59
2024-01-16T17:23:03.257Z,-4.55
2024-01-16T17:28:05.811Z,-4.50
2024-01-16T17:33:09.877Z,-4.44
2024-01-16T17:38:14.613Z,-4.46
2024-01-16T17:43:17.297Z,-4.49
2024-01-16T17:48:19.584Z,-4.54
2024-01-16T17:53:23.202Z,-4.58
2024-01-16T17:58:26.992Z,-4.66
2024-01-16T18:03:40.225Z,-4.71
2024-01-16T18:08:46.314Z,-4.69
2024-01-16T18:13:49.956Z,-4.67
2024-01-16T18:18:52.724Z,-4.65
2024-01-16T18:23:56.742Z,-4.61
2024-01-16T18:29:00.792Z,-4.58
2024-01-16T18:34:04.211Z,-4.59
2024-01-16T18:39:13.360Z,-4.58
2024-01-16T18:44:16.850Z,-4.61
2024-01-16T18:49:19.966Z,-4.65
2024-01-16T18:54:23.327Z,-4.76
2024-01-16T18:59:26.073Z,-4.86
2024-01-16T19:04:30.545Z,-4.98
2024-01-16T19:09:38.016Z,-5.06
2024-01-16T19:14:45.920Z,-5.19
2024-01-16T19:19:52.828Z,-5.26
2024-01-16T19:24:55.525Z,-5.30
2024-01-16T19:29:59.634Z,-5.29
2024-01-16T19:35:03.700Z,-5.25
2024-01-16T19:40:13.113Z,-5.25
2024-01-16T19:45:17.598Z,-5.18
2024-01-16T19:50:22.914Z,-5.10
2024-01-16T19:55:27.241Z,-4.99
2024-01-16T20:00:32.729Z,-4.90
2024-01-16T20:05:43.317Z,-4.84
2024-01-16T20:10:46.921Z,-4.79
2024-01-16T20:15:50.414Z,-4.77
2024-01-16T20:20:53.890Z,-4.82
2024-01-16T20:25:57.115Z,-4.79
2024-01-16T20:31:00.811Z,-4.77
2024-01-16T20:36:04.190Z,-4.74
2024-01-16T20:41:09.519Z,-4.73
2024-01-16T20:46:13.007Z,-4.72
2024-01-16T20:51:18.967Z,-4.68
2024-01-16T20:56:21.725Z,-4.64
2024-01-16T21:01:23.907Z,-4.59
2024-01-16T21:06:26.596Z,-4.56
2024-01-16T21:11:29.552Z,-4.54
2024-01-16T21:16:32.894Z,-4.50
2024-01-16T21:21:35.349Z,-4.48
2024-01-16T21:26:38.043Z,-4.47
2024-01-16T21:31:49.796Z,-4.46
2024-01-16T21:36:53.461Z,-4.44
2024-01-16T21:41:57.577Z,-4.42
2024-01-16T21:47:04.378Z,-4.35
2024-01-16T21:52:06.516Z,-4.28
2024-01-16T21:57:10.177Z,-4.22
2024-01-16T22:02:17.997Z,-4.18
2024-01-16T22:07:20.567Z,-4.13
2024-01-16T22:12:22.881Z,-4.11
2024-01-16T22:17:30.113Z,-4.05
2024-01-16T22:22:33.262Z,-3.99
2024-01-16T22:27:36.981Z,-3.93
2024-01-16T22:32:40.521Z,-3.88
2024-01-16T22:37:47.890Z,-3.80
2024-01-16T22:42:52.118Z,-3.73
2024-01-16T22:47:55.517Z,-3.63
2024-01-16T22:52:58.447Z,-3.53
2024-01-16T22:58:04.006Z,-3.44
2024-01-16T23:03:10.920Z,-3.37
2024-01-16T23:08:14.640Z,-3.32
2024-01-16T23:13:17.875Z,-3.29
2024-01-16T23:18:20.665Z,-3.26
2024-01-16T23:23:25.327Z,-3.23
2024-01-16T23:28:27.900Z,-3.18
2024-01-16T23:33:30.260Z,-3.11
2024-01-16T23:38:34.170Z,-3.03
2024-01-16T23:43:37.935Z,-2.96
2024-01-16T23:48:42.635Z,-2.94
2024-01-16T23:53:45.242Z,-2.94
2024-01-16T23:58:48.312Z,-2.97
